Time;durP1;ratioP1;P1;durP2;ratioP2;P2;SDS_P1;SDS_P2;PMS_P1;PMS_P2;Temp;Humidity;BMP_temperature;BMP_pressure;BME280_temperature;BME280_humidity;BME280_pressure;Samples;Min_cycle;Max_cycle;Signal;HPM_P1;HPM_P2
2021/08/31 00:00:12;;;;;;;28.15;15.77;;;19.20;99.90;;;;;;5126288;28;20158;-67
2021/08/31 00:02:38;;;;;;;28.88;15.63;;;19.10;99.90;;;;;;5123270;28;20171;-67
2021/08/31 00:05:04;;;;;;;34.90;16.58;;;19.00;99.90;;;;;;5125702;28;20269;-67
2021/08/31 00:07:30;;;;;;;30.23;15.52;;;19.20;99.90;;;;;;5126053;28;20254;-67
2021/08/31 00:09:56;;;;;;;35.35;16.40;;;19.20;99.90;;;;;;5125744;28;20210;-68
2021/08/31 00:12:21;;;;;;;30.80;15.52;;;19.20;99.90;;;;;;5123372;28;20222;-67
2021/08/31 00:14:47;;;;;;;32.17;15.90;;;19.10;99.90;;;;;;5125767;28;20222;-68
2021/08/31 00:17:16;;;;;;;28.27;16.45;;;19.00;99.90;;;;;;5125620;28;20159;-68
2021/08/31 00:19:42;;;;;;;31.88;16.13;;;18.90;99.90;;;;;;5126089;28;20154;-68
2021/08/31 00:22:08;;;;;;;26.70;15.68;;;18.80;99.90;;;;;;5124219;28;20158;-67
2021/08/31 00:24:34;;;;;;;28.85;16.30;;;18.90;99.90;;;;;;5129844;28;20230;-67
2021/08/31 00:26:59;;;;;;;30.15;16.55;;;18.80;99.90;;;;;;5129786;28;20163;-67
2021/08/31 00:29:25;;;;;;;33.88;17.38;;;18.80;99.90;;;;;;5129947;28;20169;-67
2021/08/31 00:31:51;;;;;;;31.80;16.27;;;18.80;99.90;;;;;;5126940;28;20159;-67
2021/08/31 00:34:16;;;;;;;24.15;16.77;;;18.70;99.90;;;;;;5129363;28;20198;-67
2021/08/31 00:36:42;;;;;;;28.88;17.15;;;18.90;99.90;;;;;;5129870;28;20170;-67
2021/08/31 00:39:08;;;;;;;30.85;15.82;;;18.80;99.90;;;;;;5129970;28;20190;-67
2021/08/31 00:41:36;;;;;;;26.27;15.80;;;18.70;99.90;;;;;;5126998;28;20218;-68
2021/08/31 00:44:02;;;;;;;31.00;16.67;;;18.70;99.90;;;;;;5129385;28;20548;-67
2021/08/31 00:46:27;;;;;;;26.27;16.33;;;18.80;99.90;;;;;;5129707;28;20162;-67
2021/08/31 00:48:53;;;;;;;30.50;15.80;;;18.90;99.90;;;;;;5129065;28;20192;-67
2021/08/31 00:51:26;;;;;;;30.95;17.42;;;18.90;99.90;;;;;;5127013;28;20154;-67
2021/08/31 00:53:52;;;;;;;24.35;15.70;;;18.90;99.90;;;;;;5129194;28;20230;-67
2021/08/31 00:56:19;;;;;;;38.30;16.13;;;18.90;99.90;;;;;;5129483;28;20257;-67
2021/08/31 00:58:44;;;;;;;26.25;15.73;;;18.90;99.90;;;;;;5127861;28;20229;-67
2021/08/31 01:01:10;;;;;;;26.30;16.15;;;18.90;99.90;;;;;;5125339;28;20182;-67
2021/08/31 01:03:37;;;;;;;28.75;16.52;;;18.80;99.90;;;;;;5128737;28;20178;-67
2021/08/31 01:06:04;;;;;;;28.23;15.27;;;18.70;99.90;;;;;;5127896;28;20163;-67
2021/08/31 01:08:29;;;;;;;24.00;15.38;;;18.80;99.90;;;;;;5128935;28;20151;-67
2021/08/31 01:11:01;;;;;;;23.20;15.05;;;18.70;99.90;;;;;;5128007;28;20198;-67
2021/08/31 01:13:33;;;;;;;26.83;15.18;;;18.60;99.90;;;;;;5128562;28;20176;-67
2021/08/31 01:15:59;;;;;;;26.15;14.43;;;18.60;99.90;;;;;;5129102;28;20163;-67
2021/08/31 01:18:27;;;;;;;27.65;14.38;;;18.60;99.90;;;;;;5128809;28;20324;-67
2021/08/31 01:20:56;;;;;;;27.85;14.07;;;18.70;99.90;;;;;;5128007;28;20151;-67
2021/08/31 01:23:23;;;;;;;28.70;15.75;;;18.70;99.90;;;;;;5127938;28;20187;-67
2021/08/31 01:25:49;;;;;;;27.85;15.10;;;18.80;99.90;;;;;;5128808;28;20159;-67
2021/08/31 01:28:17;;;;;;;24.70;15.48;;;18.60;99.90;;;;;;5128855;28;20184;-67
2021/08/31 01:30:48;;;;;;;25.77;15.88;;;18.70;99.90;;;;;;5128799;28;20175;-67
2021/08/31 01:33:14;;;;;;;25.80;15.95;;;18.80;99.90;;;;;;5125938;28;20181;-67
2021/08/31 01:35:39;;;;;;;27.88;15.98;;;18.90;99.90;;;;;;5127525;28;20636;-67
2021/08/31 01:38:05;;;;;;;24.88;15.57;;;18.80;99.90;;;;;;5128538;28;20213;-67
2021/08/31 01:40:31;;;;;;;29.05;17.15;;;18.80;99.90;;;;;;5128682;28;20151;-68
2021/08/31 01:46:02;;;;;;;31.13;18.30;;;18.90;99.90;;;;;;5452358;23;20234;-77
2021/08/31 01:48:28;;;;;;;32.22;18.58;;;19.10;99.90;;;;;;4984264;28;20237;-76
2021/08/31 01:50:53;;;;;;;28.83;19.27;;;19.10;99.90;;;;;;5009333;28;20527;-76
2021/08/31 01:53:19;;;;;;;27.25;18.98;;;19.00;99.90;;;;;;5026045;28;20170;-76
2021/08/31 01:55:44;;;;;;;30.17;18.15;;;18.80;99.90;;;;;;5024720;28;20654;-76
2021/08/31 01:58:10;;;;;;;25.40;18.42;;;18.70;99.90;;;;;;5024775;28;20170;-76
2021/08/31 02:00:36;;;;;;;26.98;18.38;;;18.70;99.90;;;;;;5025826;28;20170;-76
2021/08/31 02:03:02;;;;;;;25.92;17.05;;;18.80;99.90;;;;;;5024503;28;20170;-76
2021/08/31 02:05:28;;;;;;;25.95;17.23;;;18.80;99.90;;;;;;5024521;28;20681;-76
2021/08/31 02:07:54;;;;;;;31.00;17.42;;;18.80;99.90;;;;;;5024647;28;20181;-76
2021/08/31 02:10:19;;;;;;;24.27;17.17;;;19.00;99.90;;;;;;5024437;28;20162;-76
2021/08/31 02:12:45;;;;;;;26.02;16.55;;;18.90;99.90;;;;;;5025854;28;20241;-76
2021/08/31 02:15:11;;;;;;;29.52;17.10;;;18.80;99.90;;;;;;5024316;28;20178;-76
2021/08/31 02:17:37;;;;;;;26.05;16.48;;;18.70;99.90;;;;;;5025631;28;20185;-76
2021/08/31 02:20:04;;;;;;;26.30;16.65;;;18.70;99.90;;;;;;5025735;28;20189;-76
2021/08/31 02:22:30;;;;;;;23.20;15.98;;;18.80;99.90;;;;;;5025407;28;20181;-76
2021/08/31 02:24:56;;;;;;;24.90;17.48;;;18.90;99.90;;;;;;5024228;28;20190;-76
2021/08/31 02:27:21;;;;;;;29.15;19.60;;;18.80;99.90;;;;;;5025455;28;20245;-76
2021/08/31 02:29:47;;;;;;;26.35;19.85;;;18.80;99.90;;;;;;5023577;28;20170;-76
2021/08/31 02:32:12;;;;;;;33.17;21.17;;;18.80;99.90;;;;;;5024355;28;20166;-75
2021/08/31 02:34:38;;;;;;;26.00;19.92;;;18.90;99.90;;;;;;5025546;28;20221;-76
2021/08/31 02:37:04;;;;;;;33.92;20.70;;;18.80;99.90;;;;;;5025457;28;20170;-76
2021/08/31 02:39:29;;;;;;;31.50;20.88;;;18.80;99.90;;;;;;5025195;28;20182;-75
2021/08/31 02:41:55;;;;;;;32.25;21.13;;;18.80;99.90;;;;;;5023909;28;20232;-76
2021/08/31 02:44:21;;;;;;;29.58;20.98;;;18.80;99.90;;;;;;4985296;28;1100865;-76
2021/08/31 02:46:46;;;;;;;30.63;22.55;;;18.80;99.90;;;;;;5025175;28;20177;-76
2021/08/31 02:49:12;;;;;;;34.15;23.95;;;18.90;99.90;;;;;;5025978;28;20249;-76
2021/08/31 02:51:37;;;;;;;31.05;22.45;;;18.90;99.90;;;;;;5025768;28;20236;-76
2021/08/31 02:54:03;;;;;;;39.83;25.42;;;19.00;99.90;;;;;;5024865;28;20261;-76
2021/08/31 02:56:29;;;;;;;36.17;23.73;;;18.90;99.90;;;;;;5025470;28;20169;-76
2021/08/31 02:58:54;;;;;;;37.63;23.58;;;18.90;99.90;;;;;;5024349;28;20158;-76
2021/08/31 03:01:38;;;;;;;44.63;24.25;;;18.80;99.90;;;;;;5025709;28;20209;-76
2021/08/31 03:04:05;;;;;;;39.00;25.77;;;18.80;99.90;;;;;;5025508;28;20257;-76
2021/08/31 03:06:32;;;;;;;43.22;27.27;;;18.80;99.90;;;;;;5024076;28;20166;-76
2021/08/31 03:08:58;;;;;;;39.55;27.75;;;18.80;99.90;;;;;;5025669;28;20230;-75
2021/08/31 03:11:24;;;;;;;40.42;27.25;;;19.00;99.90;;;;;;5025494;28;20200;-76
2021/08/31 03:13:50;;;;;;;48.80;28.95;;;18.80;99.90;;;;;;5025397;28;20170;-76
2021/08/31 03:16:16;;;;;;;44.78;29.20;;;19.00;99.90;;;;;;5025157;28;20248;-76
2021/08/31 03:18:42;;;;;;;49.38;31.40;;;19.00;99.90;;;;;;5024232;28;20240;-76
2021/08/31 03:21:08;;;;;;;46.08;31.23;;;18.90;99.90;;;;;;5025152;28;20622;-76
2021/08/31 03:23:34;;;;;;;44.30;32.67;;;18.80;99.90;;;;;;5024026;28;20193;-76
2021/08/31 03:25:59;;;;;;;45.55;32.25;;;18.80;99.90;;;;;;5024951;28;20234;-76
2021/08/31 03:28:25;;;;;;;50.47;33.72;;;18.80;99.90;;;;;;5025303;28;20162;-75
2021/08/31 03:30:50;;;;;;;46.83;30.50;;;18.80;99.90;;;;;;5023926;28;20168;-76
2021/08/31 03:33:16;;;;;;;46.60;32.47;;;18.80;99.90;;;;;;5025417;28;20174;-77
2021/08/31 03:35:42;;;;;;;47.97;34.60;;;18.70;99.90;;;;;;5025138;28;20216;-76
2021/08/31 03:38:08;;;;;;;47.13;34.58;;;18.80;99.90;;;;;;5024987;28;20170;-76
2021/08/31 03:40:34;;;;;;;47.22;34.92;;;18.80;99.90;;;;;;5024898;28;20176;-76
2021/08/31 03:43:00;;;;;;;47.80;33.38;;;18.80;99.90;;;;;;5023913;28;20233;-76
2021/08/31 03:45:26;;;;;;;44.33;29.90;;;18.80;99.90;;;;;;5024522;28;20233;-75
2021/08/31 03:47:51;;;;;;;42.50;27.42;;;18.80;99.90;;;;;;5023464;28;20194;-76
2021/08/31 03:50:17;;;;;;;35.25;25.00;;;18.90;99.90;;;;;;5025040;28;20154;-76
2021/08/31 03:52:42;;;;;;;37.17;24.63;;;18.90;99.90;;;;;;5024932;28;20169;-76
2021/08/31 03:55:09;;;;;;;38.63;25.48;;;18.90;99.90;;;;;;5024687;28;20536;-76
2021/08/31 03:57:34;;;;;;;42.10;23.48;;;18.80;99.90;;;;;;5022929;28;20162;-76
2021/08/31 04:00:00;;;;;;;33.85;23.35;;;18.80;99.90;;;;;;5023749;28;20180;-76
2021/08/31 04:02:26;;;;;;;34.90;21.73;;;18.70;99.90;;;;;;5022532;28;20174;-76
2021/08/31 04:04:51;;;;;;;35.08;22.00;;;18.80;99.90;;;;;;5023292;28;20699;-76
2021/08/31 04:07:17;;;;;;;38.50;22.45;;;18.80;99.90;;;;;;5024686;28;20159;-76
2021/08/31 04:09:43;;;;;;;33.50;20.75;;;18.80;99.90;;;;;;5023553;28;20657;-76
2021/08/31 04:12:09;;;;;;;32.58;19.60;;;18.80;99.90;;;;;;5023114;28;20170;-76
2021/08/31 04:14:34;;;;;;;30.65;19.65;;;18.80;99.90;;;;;;5024441;28;20181;-76
2021/08/31 04:17:00;;;;;;;30.40;19.80;;;18.80;99.90;;;;;;5024448;28;20169;-76
2021/08/31 04:19:25;;;;;;;27.05;18.98;;;18.80;99.90;;;;;;5023673;28;20189;-76
2021/08/31 04:21:51;;;;;;;28.25;19.15;;;18.90;99.90;;;;;;5024676;28;20166;-76
2021/08/31 04:24:17;;;;;;;26.27;18.50;;;18.80;99.90;;;;;;5023362;28;20736;-76
2021/08/31 04:26:42;;;;;;;29.10;19.50;;;18.90;99.90;;;;;;5022826;28;20669;-76
2021/08/31 04:29:08;;;;;;;27.38;18.67;;;18.80;99.90;;;;;;5022984;28;20166;-76
2021/08/31 04:31:34;;;;;;;30.98;18.92;;;18.90;99.90;;;;;;5024713;28;20189;-76
2021/08/31 04:33:59;;;;;;;23.30;17.67;;;18.80;99.90;;;;;;5024355;28;20170;-76
2021/08/31 04:36:25;;;;;;;28.02;19.15;;;18.80;99.90;;;;;;5023184;28;20158;-76
2021/08/31 04:38:51;;;;;;;24.73;17.58;;;18.80;99.90;;;;;;5024712;28;20593;-76
2021/08/31 04:41:16;;;;;;;24.75;18.45;;;18.80;99.90;;;;;;5024307;28;20171;-76
2021/08/31 04:43:42;;;;;;;24.55;18.38;;;18.80;99.90;;;;;;5024456;28;20200;-76
2021/08/31 04:46:09;;;;;;;27.48;19.02;;;18.80;99.90;;;;;;5023482;28;20210;-77
2021/08/31 04:48:38;;;;;;;27.33;19.13;;;18.90;99.90;;;;;;5018203;28;20166;-76
2021/08/31 04:51:05;;;;;;;24.88;18.67;;;19.00;99.90;;;;;;5023048;28;20232;-76
2021/08/31 04:53:30;;;;;;;32.88;18.52;;;19.00;99.90;;;;;;5020829;28;20174;-77
2021/08/31 04:55:56;;;;;;;31.17;19.25;;;19.00;99.90;;;;;;5019656;28;20228;-77
2021/08/31 04:58:22;;;;;;;29.23;19.50;;;18.90;99.90;;;;;;5023199;28;20170;-76
2021/08/31 05:00:47;;;;;;;26.85;18.67;;;19.00;99.90;;;;;;5024261;28;20174;-77
2021/08/31 05:03:13;;;;;;;24.88;17.98;;;18.90;99.90;;;;;;5024511;28;20202;-76
2021/08/31 05:05:41;;;;;;;25.15;19.08;;;18.80;99.90;;;;;;5021977;28;20169;-76
2021/08/31 05:08:07;;;;;;;27.23;18.58;;;18.80;99.90;;;;;;5026281;28;20217;-76
2021/08/31 05:10:32;;;;;;;26.88;18.90;;;18.80;99.90;;;;;;5026577;28;20650;-76
2021/08/31 05:12:58;;;;;;;27.77;18.92;;;18.80;99.90;;;;;;5026554;28;20635;-76
2021/08/31 05:15:24;;;;;;;24.25;18.23;;;18.70;99.90;;;;;;5027336;28;20720;-77
2021/08/31 05:17:50;;;;;;;26.20;17.77;;;18.70;99.90;;;;;;5027677;28;20182;-76
2021/08/31 05:20:18;;;;;;;25.05;18.40;;;18.80;99.90;;;;;;5026360;28;20477;-76
2021/08/31 05:22:43;;;;;;;26.00;18.52;;;18.80;99.90;;;;;;5027758;28;20174;-76
2021/08/31 05:25:09;;;;;;;21.23;17.30;;;18.80;99.90;;;;;;5026183;28;20189;-77
2021/08/31 05:27:35;;;;;;;28.10;18.25;;;18.90;99.90;;;;;;5027488;28;20170;-76
2021/08/31 05:30:01;;;;;;;29.85;18.33;;;18.90;99.90;;;;;;5027317;28;20238;-76
2021/08/31 05:32:26;;;;;;;28.77;18.52;;;18.80;99.90;;;;;;5026405;28;20634;-77
2021/08/31 05:34:52;;;;;;;28.83;18.67;;;18.80;99.90;;;;;;5027877;28;20229;-76
2021/08/31 05:37:18;;;;;;;25.55;18.33;;;18.80;99.90;;;;;;5027281;28;20236;-76
2021/08/31 05:39:43;;;;;;;26.65;17.98;;;18.80;99.90;;;;;;5026014;28;20214;-76
2021/08/31 05:42:10;;;;;;;23.13;18.15;;;18.90;99.90;;;;;;5025956;28;20633;-76
2021/08/31 05:44:38;;;;;;;23.70;17.92;;;19.00;99.90;;;;;;5025375;28;20226;-76
2021/08/31 05:47:05;;;;;;;22.35;17.63;;;19.00;99.90;;;;;;5024709;28;20631;-76
2021/08/31 05:49:31;;;;;;;28.13;17.98;;;18.90;99.90;;;;;;5022964;28;20166;-76
2021/08/31 05:51:57;;;;;;;26.25;18.80;;;19.00;99.90;;;;;;5026737;28;20205;-76
2021/08/31 05:54:26;;;;;;;23.60;18.20;;;18.90;99.90;;;;;;5025667;28;20193;-77
2021/08/31 05:56:52;;;;;;;22.63;17.77;;;18.90;99.90;;;;;;5026734;28;20174;-77
2021/08/31 05:59:18;;;;;;;23.83;18.63;;;18.90;99.90;;;;;;5026682;28;20177;-77
2021/08/31 06:01:44;;;;;;;22.88;17.85;;;18.90;99.90;;;;;;5027008;28;20174;-77
2021/08/31 06:04:13;;;;;;;23.52;18.70;;;19.00;99.90;;;;;;5026615;28;20293;-77
2021/08/31 06:06:39;;;;;;;24.63;18.38;;;19.00;99.90;;;;;;5020349;28;20170;-77
2021/08/31 06:09:06;;;;;;;21.58;16.83;;;19.10;99.90;;;;;;5025630;28;20189;-76
2021/08/31 06:11:36;;;;;;;23.08;17.90;;;19.00;99.90;;;;;;5026673;28;20178;-77
2021/08/31 06:14:02;;;;;;;24.33;16.98;;;19.10;99.90;;;;;;5026628;28;20161;-77
2021/08/31 06:16:27;;;;;;;24.38;17.42;;;19.10;99.90;;;;;;5026383;28;20173;-76
2021/08/31 06:18:53;;;;;;;25.63;17.13;;;19.20;99.90;;;;;;5024437;28;20178;-76
2021/08/31 06:21:18;;;;;;;23.10;17.23;;;19.10;99.90;;;;;;5026412;28;20174;-76
2021/08/31 06:23:44;;;;;;;23.15;17.40;;;19.10;99.90;;;;;;5025185;28;20198;-76
2021/08/31 06:26:10;;;;;;;31.80;17.20;;;19.20;99.90;;;;;;5026468;28;20170;-76
2021/08/31 06:28:36;;;;;;;23.25;16.98;;;19.10;99.90;;;;;;5026250;28;20166;-76
2021/08/31 06:31:01;;;;;;;27.10;16.13;;;19.30;99.90;;;;;;5026142;28;20230;-77
2021/08/31 06:33:27;;;;;;;30.13;16.77;;;19.10;99.90;;;;;;5026438;28;20158;-77
2021/08/31 06:35:53;;;;;;;20.60;16.27;;;19.00;99.90;;;;;;5026052;28;20170;-76
2021/08/31 06:38:18;;;;;;;23.05;16.02;;;19.20;99.90;;;;;;5026092;28;20173;-76
2021/08/31 06:40:44;;;;;;;23.67;16.50;;;19.30;99.90;;;;;;5025973;28;20173;-76
2021/08/31 06:43:10;;;;;;;21.98;16.17;;;19.40;99.90;;;;;;5026149;28;20224;-77
2021/08/31 06:45:35;;;;;;;22.48;15.80;;;19.40;99.90;;;;;;5018751;28;20402;-76
2021/08/31 06:48:01;;;;;;;24.30;15.82;;;19.40;99.90;;;;;;5024313;28;20182;-77
2021/08/31 06:50:27;;;;;;;21.02;16.52;;;19.30;99.90;;;;;;5034490;28;20158;-77
2021/08/31 06:52:52;;;;;;;23.55;15.10;;;19.60;99.90;;;;;;5026984;28;20162;-76
2021/08/31 06:55:18;;;;;;;26.88;15.63;;;19.70;99.90;;;;;;5024373;28;20170;-76
2021/08/31 06:57:44;;;;;;;19.40;15.30;;;19.70;99.90;;;;;;5024409;28;20170;-76
2021/08/31 07:00:11;;;;;;;22.90;15.07;;;19.80;99.90;;;;;;5024293;28;20196;-76
2021/08/31 07:02:37;;;;;;;26.77;16.08;;;19.80;99.90;;;;;;5024488;28;20177;-76
2021/08/31 07:05:03;;;;;;;21.52;15.80;;;19.90;99.90;;;;;;5025477;28;20194;-77
2021/08/31 07:07:28;;;;;;;24.27;15.98;;;19.90;99.90;;;;;;5025624;28;20166;-76
2021/08/31 07:09:54;;;;;;;22.90;16.40;;;19.90;99.90;;;;;;5025860;28;20256;-77
2021/08/31 07:12:21;;;;;;;27.30;19.70;;;19.90;99.90;;;;;;5025485;28;20240;-77
2021/08/31 07:14:47;;;;;;;29.70;20.00;;;20.00;99.90;;;;;;5024055;28;20202;-77
2021/08/31 07:17:14;;;;;;;32.33;19.90;;;20.10;99.90;;;;;;5025281;28;20623;-76
2021/08/31 07:19:39;;;;;;;21.38;17.05;;;20.10;99.90;;;;;;5025693;28;20219;-76
2021/08/31 07:22:05;;;;;;;23.15;15.75;;;20.10;99.90;;;;;;5025319;28;20205;-76
2021/08/31 07:24:31;;;;;;;20.95;14.65;;;20.20;99.90;;;;;;5024276;28;20192;-77
2021/08/31 07:26:56;;;;;;;21.65;14.55;;;20.10;99.90;;;;;;5025047;28;20241;-77
2021/08/31 07:29:22;;;;;;;22.88;13.90;;;20.10;99.90;;;;;;5023907;28;20194;-77
2021/08/31 07:31:50;;;;;;;21.38;15.27;;;20.30;99.90;;;;;;5025081;28;20143;-76
2021/08/31 07:34:16;;;;;;;21.48;15.27;;;20.50;99.90;;;;;;5023963;28;20288;-77
2021/08/31 07:36:42;;;;;;;19.98;16.23;;;20.50;99.90;;;;;;5025157;28;20162;-77
2021/08/31 07:39:07;;;;;;;22.77;15.88;;;20.40;99.90;;;;;;5025287;28;20193;-77
2021/08/31 07:41:33;;;;;;;27.35;16.17;;;20.30;99.90;;;;;;5025085;28;20166;-77
2021/08/31 07:44:01;;;;;;;23.92;16.05;;;20.30;99.90;;;;;;5025160;28;20194;-77
2021/08/31 07:46:26;;;;;;;28.85;14.88;;;20.30;99.90;;;;;;5023149;28;20689;-76
2021/08/31 07:48:52;;;;;;;22.65;14.63;;;20.50;99.90;;;;;;5023710;28;20185;-76
2021/08/31 07:51:17;;;;;;;27.92;14.95;;;20.60;99.90;;;;;;5024668;28;20595;-76
2021/08/31 07:53:43;;;;;;;17.90;13.55;;;20.60;99.90;;;;;;5023131;28;20169;-76
2021/08/31 07:56:09;;;;;;;18.52;13.02;;;20.40;99.90;;;;;;5020696;28;20181;-76
2021/08/31 07:58:34;;;;;;;20.80;13.68;;;20.40;99.90;;;;;;5023780;28;20242;-76
2021/08/31 08:01:01;;;;;;;18.52;12.80;;;20.50;99.90;;;;;;5023409;28;20166;-76
2021/08/31 08:03:27;;;;;;;21.15;13.98;;;20.70;99.90;;;;;;5024742;28;20182;-77
2021/08/31 08:05:52;;;;;;;17.90;12.00;;;20.70;99.90;;;;;;5023260;28;20162;-76
2021/08/31 08:08:18;;;;;;;18.38;11.77;;;20.70;99.90;;;;;;5024819;28;20166;-77
2021/08/31 08:10:43;;;;;;;15.88;11.93;;;20.80;99.90;;;;;;5024939;28;20681;-76
2021/08/31 08:13:09;;;;;;;14.98;11.40;;;20.80;99.90;;;;;;5023855;28;20174;-76
2021/08/31 08:15:35;;;;;;;15.88;10.40;;;20.80;99.90;;;;;;5022982;28;20200;-77
2021/08/31 08:18:00;;;;;;;15.98;10.70;;;20.80;99.90;;;;;;5023539;28;20170;-77
2021/08/31 08:20:27;;;;;;;17.15;10.27;;;21.00;99.90;;;;;;5024688;28;20182;-77
2021/08/31 08:22:53;;;;;;;17.90;11.63;;;21.00;99.90;;;;;;5024643;28;20224;-77
2021/08/31 08:25:18;;;;;;;17.63;11.73;;;21.00;99.90;;;;;;5023094;28;20194;-77
2021/08/31 08:27:44;;;;;;;15.23;11.02;;;21.00;99.90;;;;;;5024420;28;20232;-76
2021/08/31 08:30:11;;;;;;;19.40;11.10;;;21.00;99.90;;;;;;5024315;28;20175;-76
2021/08/31 08:32:37;;;;;;;18.15;10.88;;;21.20;99.90;;;;;;5024986;28;20170;-76
2021/08/31 08:35:04;;;;;;;21.40;10.73;;;21.30;99.90;;;;;;5024592;28;20181;-76
2021/08/31 08:37:29;;;;;;;13.43;10.98;;;21.20;99.90;;;;;;5024288;28;20654;-76
2021/08/31 08:39:55;;;;;;;15.65;10.38;;;21.20;99.90;;;;;;5024660;28;20166;-75
2021/08/31 08:42:21;;;;;;;17.40;10.70;;;21.30;99.90;;;;;;5023964;28;20173;-76
2021/08/31 08:44:46;;;;;;;29.45;11.27;;;21.40;99.90;;;;;;5027688;28;20210;-77
2021/08/31 08:47:13;;;;;;;19.88;11.00;;;21.60;99.90;;;;;;5016929;28;20162;-76
2021/08/31 08:49:39;;;;;;;16.13;10.95;;;21.60;99.90;;;;;;5028262;28;20185;-76
2021/08/31 08:52:05;;;;;;;26.05;11.35;;;21.70;99.90;;;;;;5027891;28;20192;-76
2021/08/31 08:54:31;;;;;;;22.77;11.50;;;21.90;99.90;;;;;;5027004;28;20162;-77
2021/08/31 08:56:57;;;;;;;20.35;11.38;;;22.00;99.90;;;;;;5026673;28;20170;-77
2021/08/31 08:59:23;;;;;;;18.90;11.63;;;22.20;99.90;;;;;;5026545;28;20159;-77
2021/08/31 09:01:52;;;;;;;18.70;11.30;;;22.20;99.90;;;;;;5028008;28;20221;-76
2021/08/31 09:04:21;;;;;;;16.92;10.63;;;22.40;99.90;;;;;;5027314;28;20186;-76
2021/08/31 09:06:47;;;;;;;21.40;10.63;;;22.40;99.90;;;;;;5020895;28;20170;-77
2021/08/31 09:09:13;;;;;;;17.10;9.73;;;22.60;99.90;;;;;;5026735;28;20174;-77
2021/08/31 09:11:47;;;;;;;20.83;10.73;;;22.70;99.90;;;;;;5026296;28;20162;-76
2021/08/31 09:14:20;;;;;;;18.83;10.23;;;22.80;99.90;;;;;;5027983;28;20167;-76
2021/08/31 09:17:08;;;;;;;17.10;10.32;;;22.80;99.90;;;;;;5026080;28;20178;-76
2021/08/31 09:19:39;;;;;;;15.77;10.70;;;22.80;99.90;;;;;;5000219;28;20185;-76
2021/08/31 09:22:14;;;;;;;19.92;11.27;;;23.00;99.90;;;;;;5027592;28;20166;-76
2021/08/31 09:24:41;;;;;;;16.38;11.10;;;23.30;99.90;;;;;;5027524;28;20201;-76
2021/08/31 09:27:07;;;;;;;18.67;11.30;;;23.50;99.90;;;;;;5027175;28;20170;-77
2021/08/31 09:29:39;;;;;;;17.98;11.55;;;23.20;99.90;;;;;;5027117;28;20215;-77
2021/08/31 09:32:09;;;;;;;19.58;10.40;;;23.30;99.90;;;;;;5027554;28;20158;-77
2021/08/31 09:34:44;;;;;;;15.75;11.32;;;23.20;99.90;;;;;;5025994;28;20165;-76
2021/08/31 09:37:32;;;;;;;20.52;11.52;;;23.30;99.90;;;;;;5012900;28;20183;-77
2021/08/31 09:40:04;;;;;;;15.82;10.50;;;23.50;99.90;;;;;;5027138;28;20200;-77
2021/08/31 09:42:29;;;;;;;17.15;10.70;;;23.50;99.90;;;;;;5025805;28;20193;-76
2021/08/31 09:45:06;;;;;;;14.20;10.85;;;23.40;99.90;;;;;;5025466;28;20220;-76
2021/08/31 09:47:34;;;;;;;18.55;9.77;;;23.50;99.90;;;;;;5018299;28;20177;-77
2021/08/31 09:50:02;;;;;;;19.85;10.80;;;23.60;99.90;;;;;;5014062;28;20182;-76
2021/08/31 09:52:28;;;;;;;15.50;10.52;;;23.70;99.90;;;;;;5023015;28;20177;-77
2021/08/31 09:54:53;;;;;;;17.50;10.73;;;23.90;99.90;;;;;;5025725;28;20166;-76
2021/08/31 09:57:35;;;;;;;15.27;10.20;;;23.90;99.90;;;;;;5026910;28;20193;-76
2021/08/31 10:00:08;;;;;;;18.05;10.98;;;23.80;99.90;;;;;;5014065;28;20178;-76
2021/08/31 10:02:34;;;;;;;16.73;11.85;;;23.80;99.90;;;;;;5025585;28;20170;-76
2021/08/31 10:05:00;;;;;;;15.65;12.25;;;23.80;99.90;;;;;;5026309;28;20615;-76
2021/08/31 10:07:26;;;;;;;16.52;11.80;;;23.70;99.90;;;;;;5025307;28;20217;-76
2021/08/31 10:09:52;;;;;;;14.07;11.05;;;23.80;99.90;;;;;;5025463;28;20169;-76
2021/08/31 10:12:20;;;;;;;17.55;11.48;;;24.10;99.90;;;;;;5025071;28;20168;-77
2021/08/31 10:14:50;;;;;;;15.95;11.65;;;24.10;99.90;;;;;;5026493;28;20174;-76
2021/08/31 10:17:19;;;;;;;17.25;10.27;;;24.00;99.90;;;;;;5025144;28;20170;-78
2021/08/31 10:19:46;;;;;;;16.92;10.05;;;24.00;99.90;;;;;;5025435;28;20178;-76
2021/08/31 10:22:15;;;;;;;17.15;11.25;;;24.00;99.90;;;;;;5025072;28;20177;-76
2021/08/31 10:24:46;;;;;;;21.20;11.27;;;23.90;99.90;;;;;;5026775;28;20194;-76
2021/08/31 10:27:30;;;;;;;15.60;10.50;;;24.00;99.90;;;;;;5024924;28;20170;-76
2021/08/31 10:30:15;;;;;;;16.45;10.82;;;24.00;99.90;;;;;;5024798;28;20181;-76
2021/08/31 10:32:49;;;;;;;15.20;9.75;;;24.20;99.90;;;;;;5025243;28;20162;-76
2021/08/31 10:35:39;;;;;;;21.90;9.85;;;24.40;99.90;;;;;;5024864;28;20180;-76
2021/08/31 10:38:10;;;;;;;11.93;8.65;;;24.50;99.90;;;;;;5024876;28;20638;-77
2021/08/31 10:40:46;;;;;;;17.48;7.90;;;24.70;99.90;;;;;;5025788;28;20586;-76
2021/08/31 10:43:19;;;;;;;18.67;7.68;;;24.60;99.90;;;;;;5026253;28;20170;-76
2021/08/31 10:45:57;;;;;;;14.57;7.63;;;24.50;99.90;;;;;;5017692;28;20230;-76
2021/08/31 10:48:22;;;;;;;11.10;6.80;;;24.40;99.90;;;;;;5018019;28;20246;-76
2021/08/31 10:51:14;;;;;;;11.60;8.10;;;24.10;99.90;;;;;;5024781;28;20634;-77
2021/08/31 10:53:45;;;;;;;15.95;7.80;;;24.10;99.90;;;;;;5016398;28;20669;-76
2021/08/31 10:56:25;;;;;;;17.88;7.70;;;24.40;99.90;;;;;;5025758;28;20170;-76
2021/08/31 10:59:00;;;;;;;9.32;7.22;;;24.60;99.90;;;;;;5034430;28;20252;-76
2021/08/31 11:01:34;;;;;;;12.52;6.88;;;24.60;99.90;;;;;;5013445;28;20667;-76
2021/08/31 11:04:00;;;;;;;10.95;6.32;;;24.80;99.90;;;;;;5025686;28;20240;-77
2021/08/31 11:06:31;;;;;;;17.10;6.70;;;24.90;99.90;;;;;;5019147;28;20185;-77
2021/08/31 11:09:18;;;;;;;12.32;6.70;;;25.00;99.90;;;;;;5025878;28;20254;-77
2021/08/31 11:11:46;;;;;;;11.07;6.75;;;25.00;99.90;;;;;;5024399;28;20177;-76
2021/08/31 11:14:13;;;;;;;11.60;6.68;;;25.00;99.90;;;;;;5025645;28;20166;-76
2021/08/31 11:16:40;;;;;;;9.65;6.25;;;24.80;99.90;;;;;;5024063;28;20181;-76
2021/08/31 11:19:22;;;;;;;14.05;6.50;;;24.80;99.90;;;;;;5025710;28;20170;-77
2021/08/31 11:21:48;;;;;;;13.48;6.90;;;24.90;99.90;;;;;;5025272;28;20169;-77
2021/08/31 11:24:14;;;;;;;16.05;7.45;;;24.90;99.90;;;;;;5024210;28;20193;-77
2021/08/31 11:26:40;;;;;;;10.13;6.90;;;24.80;99.90;;;;;;5023275;28;20421;-77
2021/08/31 11:29:08;;;;;;;9.52;6.22;;;24.80;99.90;;;;;;5023110;28;20193;-77
2021/08/31 11:31:34;;;;;;;10.43;6.40;;;24.60;99.90;;;;;;5024766;28;20166;-77
2021/08/31 11:33:59;;;;;;;15.90;5.80;;;24.40;99.90;;;;;;5023189;28;20264;-76
2021/08/31 11:36:28;;;;;;;9.10;5.85;;;24.40;99.90;;;;;;5025047;28;20501;-76
2021/08/31 11:38:55;;;;;;;8.57;5.47;;;24.50;99.90;;;;;;5028335;28;20425;-77
2021/08/31 11:41:23;;;;;;;14.27;6.10;;;24.80;99.90;;;;;;5029785;28;20166;-77
2021/08/31 11:43:56;;;;;;;8.63;5.43;;;24.90;99.90;;;;;;5024966;28;20200;-77
2021/08/31 11:46:27;;;;;;;9.43;5.00;;;24.80;99.90;;;;;;5024326;28;20220;-76
2021/08/31 11:49:13;;;;;;;8.27;5.03;;;24.90;99.90;;;;;;5024975;28;20209;-76
2021/08/31 11:51:41;;;;;;;8.30;5.15;;;25.00;99.90;;;;;;5011825;28;20221;-76
2021/08/31 11:54:09;;;;;;;7.72;5.15;;;25.20;99.90;;;;;;5024368;28;20180;-76
2021/08/31 11:56:37;;;;;;;9.98;5.28;;;25.10;99.90;;;;;;5023225;28;20162;-77
2021/08/31 11:59:03;;;;;;;6.53;4.57;;;25.10;99.90;;;;;;5024621;28;20197;-76
2021/08/31 12:01:30;;;;;;;5.07;4.47;;;24.70;99.90;;;;;;5023232;28;20170;-77
2021/08/31 12:04:17;;;;;;;5.70;5.00;;;24.70;99.90;;;;;;5023964;28;20182;-77
2021/08/31 12:06:44;;;;;;;9.23;4.65;;;25.00;99.90;;;;;;5018636;28;20181;-77
2021/08/31 12:09:11;;;;;;;5.60;5.00;;;25.30;99.90;;;;;;5024600;28;20205;-76
2021/08/31 12:11:37;;;;;;;7.70;5.28;;;25.30;99.90;;;;;;5024770;28;20182;-76
2021/08/31 12:14:03;;;;;;;9.57;5.38;;;25.50;99.90;;;;;;5023780;28;20190;-77
2021/08/31 12:16:29;;;;;;;8.52;5.05;;;25.80;99.90;;;;;;5022991;28;20178;-76
2021/08/31 12:18:54;;;;;;;7.30;4.68;;;25.70;99.90;;;;;;5028007;28;20170;-76
2021/08/31 12:21:23;;;;;;;7.40;5.22;;;25.80;99.90;;;;;;5028712;28;20192;-76
2021/08/31 12:23:53;;;;;;;10.93;4.63;;;25.70;99.90;;;;;;5028443;28;20185;-77
2021/08/31 12:26:36;;;;;;;13.13;5.00;;;25.60;99.90;;;;;;5026967;28;20166;-77
2021/08/31 12:29:03;;;;;;;7.13;4.72;;;25.30;99.90;;;;;;5014565;28;20166;-76
2021/08/31 12:31:29;;;;;;;7.82;4.65;;;25.30;99.90;;;;;;5026901;28;20317;-76